sensor_id;sensor_type;location;lat;lon;timestamp;pressure;altitude;pressure_sealevel;temperature;humidity
53758;BME280;39674;59.860;30.672;2023-05-23T00:00:12;101620.13;;;9.07;100.00
53758;BME280;39674;59.860;30.672;2023-05-23T00:02:45;101526.28;;;8.43;100.00
53758;BME280;39674;59.860;30.672;2023-05-23T00:05:16;101642.13;;;9.06;100.00
53758;BME280;39674;59.860;30.672;2023-05-23T00:07:45;101568.00;;;8.59;100.00
53758;BME280;39674;59.860;30.672;2023-05-23T00:10:13;101517.06;;;8.28;100.00
53758;BME280;39674;59.860;30.672;2023-05-23T00:12:42;101618.94;;;8.88;100.00
53758;BME280;39674;59.860;30.672;2023-05-23T00:15:14;101593.25;;;8.66;100.00
53758;BME280;39674;59.860;30.672;2023-05-23T00:17:48;101588.06;;;8.63;100.00
53758;BME280;39674;59.860;30.672;2023-05-23T00:20:18;101554.63;;;8.35;100.00
53758;BME280;39674;59.860;30.672;2023-05-23T00:22:47;101639.28;;;8.82;100.00
53758;BME280;39674;59.860;30.672;2023-05-23T00:25:22;101526.34;;;8.10;100.00
53758;BME280;39674;59.860;30.672;2023-05-23T00:27:54;101614.50;;;8.60;100.00
53758;BME280;39674;59.860;30.672;2023-05-23T00:30:30;101633.31;;;8.77;100.00
53758;BME280;39674;59.860;30.672;2023-05-23T00:33:04;101597.97;;;8.55;100.00
53758;BME280;39674;59.860;30.672;2023-05-23T00:35:36;101513.19;;;8.12;100.00
53758;BME280;39674;59.860;30.672;2023-05-23T00:38:09;101505.47;;;8.04;100.00
53758;BME280;39674;59.860;30.672;2023-05-23T00:40:40;101625.31;;;8.80;100.00
53758;BME280;39674;59.860;30.672;2023-05-23T00:43:10;101542.72;;;8.22;100.00
53758;BME280;39674;59.860;30.672;2023-05-23T00:45:43;101548.22;;;8.12;100.00
53758;BME280;39674;59.860;30.672;2023-05-23T00:48:13;101587.91;;;8.36;100.00
53758;BME280;39674;59.860;30.672;2023-05-23T00:50:43;101595.56;;;8.45;100.00
53758;BME280;39674;59.860;30.672;2023-05-23T00:53:12;101585.56;;;8.27;100.00
53758;BME280;39674;59.860;30.672;2023-05-23T00:55:42;101624.56;;;8.44;100.00
53758;BME280;39674;59.860;30.672;2023-05-23T00:58:11;101577.19;;;8.12;100.00
53758;BME280;39674;59.860;30.672;2023-05-23T01:00:45;101595.34;;;8.22;100.00
53758;BME280;39674;59.860;30.672;2023-05-23T01:03:23;101504.88;;;7.63;100.00
53758;BME280;39674;59.860;30.672;2023-05-23T01:05:54;101479.91;;;7.45;100.00
53758;BME280;39674;59.860;30.672;2023-05-23T01:08:25;101572.19;;;8.01;100.00
53758;BME280;39674;59.860;30.672;2023-05-23T01:11:00;101580.03;;;8.05;100.00
53758;BME280;39674;59.860;30.672;2023-05-23T01:13:35;101506.72;;;7.58;100.00
53758;BME280;39674;59.860;30.672;2023-05-23T01:16:13;101580.03;;;8.05;100.00
53758;BME280;39674;59.860;30.672;2023-05-23T01:19:01;101579.88;;;8.09;100.00
53758;BME280;39674;59.860;30.672;2023-05-23T01:21:37;101591.34;;;8.08;100.00
53758;BME280;39674;59.860;30.672;2023-05-23T01:24:35;101629.06;;;8.40;100.00
53758;BME280;39674;59.860;30.672;2023-05-23T01:27:13;101509.97;;;7.69;100.00
53758;BME280;39674;59.860;30.672;2023-05-23T01:29:55;101536.88;;;7.77;100.00
53758;BME280;39674;59.860;30.672;2023-05-23T01:32:26;101539.69;;;7.71;100.00
53758;BME280;39674;59.860;30.672;2023-05-23T01:34:59;101514.66;;;7.56;100.00
53758;BME280;39674;59.860;30.672;2023-05-23T01:37:29;101638.25;;;8.24;100.00
53758;BME280;39674;59.860;30.672;2023-05-23T01:39:58;101611.59;;;8.05;100.00
53758;BME280;39674;59.860;30.672;2023-05-23T01:42:30;101516.88;;;7.38;100.00
53758;BME280;39674;59.860;30.672;2023-05-23T01:45:09;101635.00;;;8.15;100.00
53758;BME280;39674;59.860;30.672;2023-05-23T01:47:43;101635.84;;;8.16;100.00
53758;BME280;39674;59.860;30.672;2023-05-23T01:50:26;101562.44;;;7.72;100.00
53758;BME280;39674;59.860;30.672;2023-05-23T01:53:07;101530.44;;;7.56;100.00
53758;BME280;39674;59.860;30.672;2023-05-23T01:55:39;101499.28;;;7.41;100.00
53758;BME280;39674;59.860;30.672;2023-05-23T01:58:11;101505.25;;;7.47;100.00
53758;BME280;39674;59.860;30.672;2023-05-23T02:00:45;101614.06;;;8.11;100.00
53758;BME280;39674;59.860;30.672;2023-05-23T02:03:19;101508.88;;;7.43;100.00
53758;BME280;39674;59.860;30.672;2023-05-23T02:05:53;101621.69;;;8.22;100.00
53758;BME280;39674;59.860;30.672;2023-05-23T02:08:30;101596.66;;;8.05;100.00
53758;BME280;39674;59.860;30.672;2023-05-23T02:11:12;101494.75;;;7.47;100.00
53758;BME280;39674;59.860;30.672;2023-05-23T02:13:51;101598.06;;;8.18;100.00
53758;BME280;39674;59.860;30.672;2023-05-23T02:16:33;101541.03;;;7.87;100.00
53758;BME280;39674;59.860;30.672;2023-05-23T02:19:10;101547.19;;;7.86;100.00
53758;BME280;39674;59.860;30.672;2023-05-23T02:21:49;101621.34;;;8.34;100.00
53758;BME280;39674;59.860;30.672;2023-05-23T02:24:21;101619.56;;;8.34;100.00
53758;BME280;39674;59.860;30.672;2023-05-23T02:26:56;101566.81;;;8.06;100.00
53758;BME280;39674;59.860;30.672;2023-05-23T02:29:27;101569.53;;;8.03;100.00
53758;BME280;39674;59.860;30.672;2023-05-23T02:32:00;101613.50;;;8.31;100.00
53758;BME280;39674;59.860;30.672;2023-05-23T02:34:33;101499.06;;;7.50;100.00
53758;BME280;39674;59.860;30.672;2023-05-23T02:37:04;101578.66;;;7.90;100.00
53758;BME280;39674;59.860;30.672;2023-05-23T02:39:35;101517.25;;;7.58;100.00
53758;BME280;39674;59.860;30.672;2023-05-23T02:42:04;101561.91;;;7.94;100.00
53758;BME280;39674;59.860;30.672;2023-05-23T02:44:33;101552.94;;;8.01;100.00
53758;BME280;39674;59.860;30.672;2023-05-23T02:47:07;101547.50;;;8.07;100.00
53758;BME280;39674;59.860;30.672;2023-05-23T02:49:38;101507.38;;;7.99;100.00
53758;BME280;39674;59.860;30.672;2023-05-23T02:52:07;101496.84;;;7.99;100.00
53758;BME280;39674;59.860;30.672;2023-05-23T02:54:37;101560.19;;;8.56;100.00
53758;BME280;39674;59.860;30.672;2023-05-23T02:57:07;101575.28;;;8.80;100.00
53758;BME280;39674;59.860;30.672;2023-05-23T02:59:39;101557.56;;;8.86;100.00
53758;BME280;39674;59.860;30.672;2023-05-23T03:02:13;101587.50;;;9.11;100.00
53758;BME280;39674;59.860;30.672;2023-05-23T03:04:42;101514.53;;;8.85;100.00
53758;BME280;39674;59.860;30.672;2023-05-23T03:07:16;101622.63;;;9.67;100.00
53758;BME280;39674;59.860;30.672;2023-05-23T03:09:49;101596.84;;;9.75;100.00
53758;BME280;39674;59.860;30.672;2023-05-23T03:12:22;101575.84;;;9.72;100.00
53758;BME280;39674;59.860;30.672;2023-05-23T03:14:54;101496.25;;;9.34;100.00
53758;BME280;39674;59.860;30.672;2023-05-23T03:17:28;101551.53;;;9.64;100.00
53758;BME280;39674;59.860;30.672;2023-05-23T03:20:02;101536.31;;;9.45;100.00
53758;BME280;39674;59.860;30.672;2023-05-23T03:22:44;101566.94;;;9.76;100.00
53758;BME280;39674;59.860;30.672;2023-05-23T03:25:14;101508.66;;;9.32;100.00
53758;BME280;39674;59.860;30.672;2023-05-23T03:27:44;101607.59;;;9.96;100.00
53758;BME280;39674;59.860;30.672;2023-05-23T03:30:14;101499.72;;;9.36;100.00
53758;BME280;39674;59.860;30.672;2023-05-23T03:32:48;101570.31;;;9.80;100.00
53758;BME280;39674;59.860;30.672;2023-05-23T03:35:22;101606.34;;;10.06;100.00
53758;BME280;39674;59.860;30.672;2023-05-23T03:38:07;101547.00;;;9.68;100.00
53758;BME280;39674;59.860;30.672;2023-05-23T03:40:37;101608.41;;;9.98;100.00
53758;BME280;39674;59.860;30.672;2023-05-23T03:43:07;101498.81;;;9.37;100.00
53758;BME280;39674;59.860;30.672;2023-05-23T03:45:42;101558.94;;;9.78;100.00
53758;BME280;39674;59.860;30.672;2023-05-23T03:48:17;101615.69;;;10.17;100.00
53758;BME280;39674;59.860;30.672;2023-05-23T03:50:46;101593.75;;;10.15;100.00
53758;BME280;39674;59.860;30.672;2023-05-23T03:53:15;101617.56;;;10.38;100.00
53758;BME280;39674;59.860;30.672;2023-05-23T03:55:44;101614.75;;;10.43;100.00
53758;BME280;39674;59.860;30.672;2023-05-23T03:58:16;101586.06;;;10.32;100.00
53758;BME280;39674;59.860;30.672;2023-05-23T04:00:47;101617.59;;;10.62;100.00
53758;BME280;39674;59.860;30.672;2023-05-23T04:03:18;101511.22;;;10.09;100.00
53758;BME280;39674;59.860;30.672;2023-05-23T04:05:47;101574.41;;;10.63;100.00
53758;BME280;39674;59.860;30.672;2023-05-23T04:08:17;101619.75;;;10.98;100.00
53758;BME280;39674;59.860;30.672;2023-05-23T04:10:50;101600.09;;;11.05;100.00
53758;BME280;39674;59.860;30.672;2023-05-23T04:13:20;101610.59;;;11.29;100.00
53758;BME280;39674;59.860;30.672;2023-05-23T04:15:51;101597.03;;;11.38;100.00
53758;BME280;39674;59.860;30.672;2023-05-23T04:18:27;101604.75;;;11.65;100.00
53758;BME280;39674;59.860;30.672;2023-05-23T04:20:56;101552.91;;;11.39;100.00
53758;BME280;39674;59.860;30.672;2023-05-23T04:23:35;101498.88;;;11.24;100.00
53758;BME280;39674;59.860;30.672;2023-05-23T04:26:17;101495.44;;;11.43;100.00
53758;BME280;39674;59.860;30.672;2023-05-23T04:29:02;101526.22;;;11.86;100.00
53758;BME280;39674;59.860;30.672;2023-05-23T04:31:50;101572.25;;;12.24;100.00
53758;BME280;39674;59.860;30.672;2023-05-23T04:34:38;101488.75;;;11.96;100.00
53758;BME280;39674;59.860;30.672;2023-05-23T04:37:30;101496.25;;;12.07;100.00
53758;BME280;39674;59.860;30.672;2023-05-23T04:40:07;101502.28;;;12.29;100.00
53758;BME280;39674;59.860;30.672;2023-05-23T04:43:15;101565.28;;;12.99;100.00
53758;BME280;39674;59.860;30.672;2023-05-23T04:49:50;101544.00;;;13.18;100.00
53758;BME280;39674;59.860;30.672;2023-05-23T04:52:26;101501.56;;;13.00;100.00
53758;BME280;39674;59.860;30.672;2023-05-23T04:55:27;101576.19;;;13.66;100.00
53758;BME280;39674;59.860;30.672;2023-05-23T04:58:24;101506.34;;;13.29;100.00
53758;BME280;39674;59.860;30.672;2023-05-23T05:01:08;101562.06;;;13.83;100.00
53758;BME280;39674;59.860;30.672;2023-05-23T05:03:50;101607.69;;;14.25;100.00
53758;BME280;39674;59.860;30.672;2023-05-23T05:07:27;101532.34;;;13.92;100.00
53758;BME280;39674;59.860;30.672;2023-05-23T05:13:56;101492.03;;;14.02;100.00
53758;BME280;39674;59.860;30.672;2023-05-23T05:16:17;101581.63;;;14.65;100.00
53758;BME280;39674;59.860;30.672;2023-05-23T05:18:49;101609.03;;;15.15;100.00
53758;BME280;39674;59.860;30.672;2023-05-23T05:21:24;101599.31;;;15.14;100.00
53758;BME280;39674;59.860;30.672;2023-05-23T05:24:20;101601.63;;;15.20;100.00
53758;BME280;39674;59.860;30.672;2023-05-23T05:27:14;101514.50;;;14.94;100.00
53758;BME280;39674;59.860;30.672;2023-05-23T05:29:48;101618.09;;;15.90;99.96
53758;BME280;39674;59.860;30.672;2023-05-23T05:33:17;101616.75;;;16.27;97.51
53758;BME280;39674;59.860;30.672;2023-05-23T05:36:10;101554.75;;;15.95;94.95
53758;BME280;39674;59.860;30.672;2023-05-23T05:39:06;101487.13;;;15.52;93.75
53758;BME280;39674;59.860;30.672;2023-05-23T05:42:41;101503.78;;;15.70;94.96
53758;BME280;39674;59.860;30.672;2023-05-23T05:45:18;101563.16;;;16.17;94.58
53758;BME280;39674;59.860;30.672;2023-05-23T05:48:10;101494.59;;;16.05;93.63
53758;BME280;39674;59.860;30.672;2023-05-23T05:50:47;101606.72;;;16.89;91.85
53758;BME280;39674;59.860;30.672;2023-05-23T05:53:47;101563.28;;;16.72;92.36
53758;BME280;39674;59.860;30.672;2023-05-23T05:56:45;101488.28;;;16.49;90.42
53758;BME280;39674;59.860;30.672;2023-05-23T06:03:18;101591.66;;;17.29;89.79
53758;BME280;39674;59.860;30.672;2023-05-23T06:06:34;101562.19;;;17.04;88.28
53758;BME280;39674;59.860;30.672;2023-05-23T06:13:13;101498.28;;;16.88;87.56
53758;BME280;39674;59.860;30.672;2023-05-23T06:16:00;101604.72;;;17.47;86.82
53758;BME280;39674;59.860;30.672;2023-05-23T06:19:52;101475.41;;;16.83;87.98
53758;BME280;39674;59.860;30.672;2023-05-23T06:22:47;101508.13;;;17.27;87.47
53758;BME280;39674;59.860;30.672;2023-05-23T06:25:37;101497.81;;;17.48;85.60
53758;BME280;39674;59.860;30.672;2023-05-23T06:31:18;101530.72;;;17.62;84.42
53758;BME280;39674;59.860;30.672;2023-05-23T06:34:13;101599.81;;;17.94;85.11
53758;BME280;39674;59.860;30.672;2023-05-23T06:37:17;101483.94;;;17.69;84.84
53758;BME280;39674;59.860;30.672;2023-05-23T06:44:34;101488.84;;;18.14;81.70
53758;BME280;39674;59.860;30.672;2023-05-23T06:47:13;101491.34;;;18.54;81.18
53758;BME280;39674;59.860;30.672;2023-05-23T06:50:13;101525.03;;;18.94;79.95
53758;BME280;39674;59.860;30.672;2023-05-23T06:56:38;101494.59;;;18.34;76.63
53758;BME280;39674;59.860;30.672;2023-05-23T06:59:47;101552.78;;;18.80;78.77
53758;BME280;39674;59.860;30.672;2023-05-23T07:02:24;101579.66;;;19.16;76.66
53758;BME280;39674;59.860;30.672;2023-05-23T07:09:45;101552.22;;;19.72;73.36
53758;BME280;39674;59.860;30.672;2023-05-23T07:20:34;101482.31;;;19.17;70.50
53758;BME280;39674;59.860;30.672;2023-05-23T07:24:04;101591.63;;;19.23;72.01
53758;BME280;39674;59.860;30.672;2023-05-23T07:27:42;101543.13;;;19.15;73.88
53758;BME280;39674;59.860;30.672;2023-05-23T07:31:02;101578.69;;;19.17;72.19
53758;BME280;39674;59.860;30.672;2023-05-23T07:34:01;101463.53;;;18.44;74.41
53758;BME280;39674;59.860;30.672;2023-05-23T07:37:39;101466.56;;;18.88;72.57
53758;BME280;39674;59.860;30.672;2023-05-23T07:40:51;101536.03;;;19.73;68.95
53758;BME280;39674;59.860;30.672;2023-05-23T07:44:05;101464.09;;;19.45;66.50
53758;BME280;39674;59.860;30.672;2023-05-23T07:48:28;101467.19;;;18.67;67.23
53758;BME280;39674;59.860;30.672;2023-05-23T07:55:44;101570.34;;;19.57;68.93
53758;BME280;39674;59.860;30.672;2023-05-23T07:59:07;101527.63;;;19.67;69.95
53758;BME280;39674;59.860;30.672;2023-05-23T08:05:28;101455.66;;;19.85;67.30
53758;BME280;39674;59.860;30.672;2023-05-23T08:17:44;101460.16;;;20.62;63.42
53758;BME280;39674;59.860;30.672;2023-05-23T08:20:35;101506.00;;;20.93;62.95
53758;BME280;39674;59.860;30.672;2023-05-23T08:23:41;101527.06;;;21.09;60.52
53758;BME280;39674;59.860;30.672;2023-05-23T08:27:01;101455.38;;;21.10;59.87
53758;BME280;39674;59.860;30.672;2023-05-23T08:38:41;101561.84;;;22.07;58.82
53758;BME280;39674;59.860;30.672;2023-05-23T08:43:20;101440.72;;;21.14;60.04
53758;BME280;39674;59.860;30.672;2023-05-23T08:46:19;101491.47;;;21.71;58.89
53758;BME280;39674;59.860;30.672;2023-05-23T08:50:03;101490.28;;;21.63;56.69
53758;BME280;39674;59.860;30.672;2023-05-23T08:54:07;101471.19;;;21.67;57.42
53758;BME280;39674;59.860;30.672;2023-05-23T09:01:56;101429.50;;;21.51;57.06
53758;BME280;39674;59.860;30.672;2023-05-23T09:05:27;101445.66;;;22.33;56.45
53758;BME280;39674;59.860;30.672;2023-05-23T09:12:05;101441.13;;;22.23;54.38
53758;BME280;39674;59.860;30.672;2023-05-23T09:19:26;101522.34;;;23.38;54.25
53758;BME280;39674;59.860;30.672;2023-05-23T09:42:40;101417.41;;;23.07;48.25
53758;BME280;39674;59.860;30.672;2023-05-23T09:46:27;101501.47;;;24.07;48.52
53758;BME280;39674;59.860;30.672;2023-05-23T09:53:51;101426.84;;;22.33;51.06
53758;BME280;39674;59.860;30.672;2023-05-23T11:32:57;101455.16;;;24.94;37.11
53758;BME280;39674;59.860;30.672;2023-05-23T11:40:24;101435.84;;;25.25;34.00
53758;BME280;39674;59.860;30.672;2023-05-23T11:51:19;101401.44;;;24.55;35.35
53758;BME280;39674;59.860;30.672;2023-05-23T11:55:56;101404.38;;;24.43;35.12
53758;BME280;39674;59.860;30.672;2023-05-23T12:01:55;101352.84;;;23.35;36.07
53758;BME280;39674;59.860;30.672;2023-05-23T12:12:45;101419.06;;;23.75;36.50
53758;BME280;39674;59.860;30.672;2023-05-23T12:24:08;101416.00;;;23.03;37.59
53758;BME280;39674;59.860;30.672;2023-05-23T12:27:17;101442.50;;;23.17;37.59
53758;BME280;39674;59.860;30.672;2023-05-23T12:45:21;101417.41;;;23.07;37.86
53758;BME280;39674;59.860;30.672;2023-05-23T13:00:15;101421.06;;;23.35;39.34
53758;BME280;39674;59.860;30.672;2023-05-23T13:08:05;101325.88;;;22.68;38.58
53758;BME280;39674;59.860;30.672;2023-05-23T13:28:48;101312.28;;;22.69;37.56
53758;BME280;39674;59.860;30.672;2023-05-23T13:32:35;101354.16;;;23.01;36.94
53758;BME280;39674;59.860;30.672;2023-05-23T13:38:32;101380.81;;;23.14;37.46
53758;BME280;39674;59.860;30.672;2023-05-23T13:39:36;101314.72;;;22.53;36.70
53758;BME280;39674;59.860;30.672;2023-05-23T13:53:26;101345.72;;;22.76;37.68
53758;BME280;39674;59.860;30.672;2023-05-23T14:02:37;101368.38;;;22.74;37.81
53758;BME280;39674;59.860;30.672;2023-05-23T14:06:16;101308.63;;;22.41;38.77
53758;BME280;39674;59.860;30.672;2023-05-23T14:09:41;101367.09;;;22.58;37.61
53758;BME280;39674;59.860;30.672;2023-05-23T14:16:34;101408.78;;;22.64;38.45
53758;BME280;39674;59.860;30.672;2023-05-23T14:19:50;101290.56;;;21.92;39.75
53758;BME280;39674;59.860;30.672;2023-05-23T14:23:08;101411.88;;;22.79;38.90
53758;BME280;39674;59.860;30.672;2023-05-23T14:29:28;101339.72;;;22.14;37.32
53758;BME280;39674;59.860;30.672;2023-05-23T14:32:21;101296.81;;;21.93;39.16
53758;BME280;39674;59.860;30.672;2023-05-23T14:35:45;101398.72;;;22.56;39.17
53758;BME280;39674;59.860;30.672;2023-05-23T14:42:17;101292.13;;;21.75;38.75
53758;BME280;39674;59.860;30.672;2023-05-23T14:48:56;101319.03;;;21.85;37.88
53758;BME280;39674;59.860;30.672;2023-05-23T14:54:54;101288.38;;;21.57;39.63
53758;BME280;39674;59.860;30.672;2023-05-23T14:57:46;101271.50;;;21.45;38.95
53758;BME280;39674;59.860;30.672;2023-05-23T15:19:13;101400.56;;;21.95;40.10
53758;BME280;39674;59.860;30.672;2023-05-23T15:25:58;101300.16;;;21.35;40.66
53758;BME280;39674;59.860;30.672;2023-05-23T15:29:16;101356.34;;;21.78;39.92
53758;BME280;39674;59.860;30.672;2023-05-23T15:32:23;101291.66;;;21.29;39.70
53758;BME280;39674;59.860;30.672;2023-05-23T18:24:05;101300.00;;;18.37;61.13
53758;BME280;39674;59.860;30.672;2023-05-23T18:37:14;101304.84;;;18.08;60.59
53758;BME280;39674;59.860;30.672;2023-05-23T19:02:36;101438.84;;;17.52;67.76
53758;BME280;39674;59.860;30.672;2023-05-23T19:05:17;101392.81;;;17.09;69.16
53758;BME280;39674;59.860;30.672;2023-05-23T19:07:56;101339.28;;;16.58;69.99
53758;BME280;39674;59.860;30.672;2023-05-23T19:10:38;101366.13;;;16.69;68.63
53758;BME280;39674;59.860;30.672;2023-05-23T19:13:15;101441.16;;;17.17;67.92
53758;BME280;39674;59.860;30.672;2023-05-23T19:15:49;101436.47;;;17.08;68.51
53758;BME280;39674;59.860;30.672;2023-05-23T19:18:37;101352.50;;;16.46;69.05
53758;BME280;39674;59.860;30.672;2023-05-23T19:21:52;101337.59;;;16.29;68.14
53758;BME280;39674;59.860;30.672;2023-05-23T19:25:08;101357.19;;;16.15;68.54
53758;BME280;39674;59.860;30.672;2023-05-23T19:27:57;101344.19;;;15.82;70.83
53758;BME280;39674;59.860;30.672;2023-05-23T19:30:39;101335.66;;;15.62;71.83
53758;BME280;39674;59.860;30.672;2023-05-23T19:34:25;101341.81;;;15.48;72.29
53758;BME280;39674;59.860;30.672;2023-05-23T19:37:02;101464.06;;;16.11;72.07
53758;BME280;39674;59.860;30.672;2023-05-23T19:39:40;101421.16;;;15.86;72.66
53758;BME280;39674;59.860;30.672;2023-05-23T19:46:19;101358.34;;;15.10;74.00
53758;BME280;39674;59.860;30.672;2023-05-23T19:49:04;101426.63;;;15.26;75.99
53758;BME280;39674;59.860;30.672;2023-05-23T19:51:36;101433.03;;;15.21;75.64
53758;BME280;39674;59.860;30.672;2023-05-23T19:54:05;101466.75;;;15.37;76.26
53758;BME280;39674;59.860;30.672;2023-05-23T19:56:44;101369.03;;;14.94;74.06
53758;BME280;39674;59.860;30.672;2023-05-23T19:59:17;101441.69;;;15.25;77.56
53758;BME280;39674;59.860;30.672;2023-05-23T20:01:47;101408.84;;;14.96;77.82
53758;BME280;39674;59.860;30.672;2023-05-23T20:04:21;101382.97;;;14.83;77.08
53758;BME280;39674;59.860;30.672;2023-05-23T20:06:59;101328.66;;;14.57;75.45
53758;BME280;39674;59.860;30.672;2023-05-23T20:09:29;101373.22;;;14.84;75.08
53758;BME280;39674;59.860;30.672;2023-05-23T20:12:07;101342.97;;;14.70;74.83
53758;BME280;39674;59.860;30.672;2023-05-23T20:14:53;101405.69;;;15.19;73.60
53758;BME280;39674;59.860;30.672;2023-05-23T20:17:31;101327.09;;;14.69;73.44
53758;BME280;39674;59.860;30.672;2023-05-23T20:20:20;101383.44;;;15.06;73.39
53758;BME280;39674;59.860;30.672;2023-05-23T20:22:56;101341.34;;;14.68;73.23
53758;BME280;39674;59.860;30.672;2023-05-23T20:25:41;101415.72;;;15.00;75.61
53758;BME280;39674;59.860;30.672;2023-05-23T20:28:48;101477.13;;;15.11;77.79
53758;BME280;39674;59.860;30.672;2023-05-23T20:31:30;101355.31;;;14.09;77.89
53758;BME280;39674;59.860;30.672;2023-05-23T20:34:13;101399.56;;;14.24;81.02
53758;BME280;39674;59.860;30.672;2023-05-23T20:36:53;101481.47;;;14.66;79.50
53758;BME280;39674;59.860;30.672;2023-05-23T20:39:24;101482.91;;;14.55;78.33
53758;BME280;39674;59.860;30.672;2023-05-23T20:41:53;101441.31;;;14.22;78.89
53758;BME280;39674;59.860;30.672;2023-05-23T20:44:25;101380.19;;;13.90;79.21
53758;BME280;39674;59.860;30.672;2023-05-23T20:47:02;101380.19;;;13.90;78.61
53758;BME280;39674;59.860;30.672;2023-05-23T20:49:32;101441.06;;;14.27;80.44
53758;BME280;39674;59.860;30.672;2023-05-23T20:52:04;101454.53;;;14.40;79.27
53758;BME280;39674;59.860;30.672;2023-05-23T20:54:33;101465.16;;;14.40;79.67
53758;BME280;39674;59.860;30.672;2023-05-23T20:57:06;101451.63;;;14.28;78.56
53758;BME280;39674;59.860;30.672;2023-05-23T21:00:00;101439.28;;;14.27;78.35
53758;BME280;39674;59.860;30.672;2023-05-23T21:03:08;101438.66;;;14.22;78.10
53758;BME280;39674;59.860;30.672;2023-05-23T21:06:10;101440.22;;;14.26;78.21
53758;BME280;39674;59.860;30.672;2023-05-23T21:08:41;101437.38;;;14.13;77.79
53758;BME280;39674;59.860;30.672;2023-05-23T21:11:10;101364.84;;;13.63;78.08
53758;BME280;39674;59.860;30.672;2023-05-23T21:13:38;101485.03;;;14.33;79.06
53758;BME280;39674;59.860;30.672;2023-05-23T21:16:07;101429.81;;;13.90;78.57
53758;BME280;39674;59.860;30.672;2023-05-23T21:18:40;101418.66;;;13.83;77.75
53758;BME280;39674;59.860;30.672;2023-05-23T21:21:09;101463.22;;;14.10;77.84
53758;BME280;39674;59.860;30.672;2023-05-23T21:24:02;101398.41;;;13.64;79.82
53758;BME280;39674;59.860;30.672;2023-05-23T21:26:37;101495.81;;;14.29;75.86
53758;BME280;39674;59.860;30.672;2023-05-23T21:29:10;101396.56;;;13.31;79.93
53758;BME280;39674;59.860;30.672;2023-05-23T21:31:38;101467.09;;;13.71;79.80
53758;BME280;39674;59.860;30.672;2023-05-23T21:34:10;101419.06;;;13.42;80.23
53758;BME280;39674;59.860;30.672;2023-05-23T21:36:42;101506.03;;;13.88;80.74
53758;BME280;39674;59.860;30.672;2023-05-23T21:39:16;101492.88;;;14.02;78.72
53758;BME280;39674;59.860;30.672;2023-05-23T21:41:45;101451.91;;;13.57;79.74
53758;BME280;39674;59.860;30.672;2023-05-23T21:44:16;101493.31;;;13.77;80.78
53758;BME280;39674;59.860;30.672;2023-05-23T21:46:48;101418.56;;;13.33;80.12
53758;BME280;39674;59.860;30.672;2023-05-23T21:49:22;101417.16;;;13.26;79.96
53758;BME280;39674;59.860;30.672;2023-05-23T21:51:51;101480.84;;;13.61;79.29
53758;BME280;39674;59.860;30.672;2023-05-23T21:54:25;101441.53;;;13.17;82.46
53758;BME280;39674;59.860;30.672;2023-05-23T21:56:57;101472.25;;;13.04;84.56
53758;BME280;39674;59.860;30.672;2023-05-23T21:59:28;101447.91;;;12.95;83.54
53758;BME280;39674;59.860;30.672;2023-05-23T22:01:58;101415.59;;;12.70;82.29
53758;BME280;39674;59.860;30.672;2023-05-23T22:04:27;101415.78;;;12.47;86.20
53758;BME280;39674;59.860;30.672;2023-05-23T22:06:56;101418.16;;;12.34;87.04
53758;BME280;39674;59.860;30.672;2023-05-23T22:09:28;101406.28;;;12.24;87.55
53758;BME280;39674;59.860;30.672;2023-05-23T22:12:06;101452.88;;;12.47;88.78
53758;BME280;39674;59.860;30.672;2023-05-23T22:14:38;101495.09;;;12.70;87.55
53758;BME280;39674;59.860;30.672;2023-05-23T22:17:07;101476.75;;;12.65;85.16
53758;BME280;39674;59.860;30.672;2023-05-23T22:19:40;101491.94;;;12.80;84.76
53758;BME280;39674;59.860;30.672;2023-05-23T22:22:10;101444.53;;;12.55;85.13
53758;BME280;39674;59.860;30.672;2023-05-23T22:24:42;101505.09;;;12.82;87.86
53758;BME280;39674;59.860;30.672;2023-05-23T22:27:14;101372.72;;;12.06;84.98
53758;BME280;39674;59.860;30.672;2023-05-23T22:29:44;101444.03;;;12.47;85.99
53758;BME280;39674;59.860;30.672;2023-05-23T22:32:13;101403.34;;;12.11;86.31
53758;BME280;39674;59.860;30.672;2023-05-23T22:34:45;101450.50;;;12.41;86.49
53758;BME280;39674;59.860;30.672;2023-05-23T22:37:19;101425.63;;;12.26;84.94
53758;BME280;39674;59.860;30.672;2023-05-23T22:39:52;101361.88;;;11.91;84.13
53758;BME280;39674;59.860;30.672;2023-05-23T22:42:21;101392.19;;;12.04;83.94
53758;BME280;39674;59.860;30.672;2023-05-23T22:44:51;101394.63;;;12.09;85.09
53758;BME280;39674;59.860;30.672;2023-05-23T22:47:23;101476.22;;;12.58;84.73
53758;BME280;39674;59.860;30.672;2023-05-23T22:49:55;101436.97;;;12.28;85.52
53758;BME280;39674;59.860;30.672;2023-05-23T22:52:27;101372.91;;;11.82;86.62
53758;BME280;39674;59.860;30.672;2023-05-23T22:55:02;101341.16;;;11.63;86.78
53758;BME280;39674;59.860;30.672;2023-05-23T22:57:32;101337.13;;;11.54;87.38
53758;BME280;39674;59.860;30.672;2023-05-23T23:00:06;101418.78;;;12.01;88.06
53758;BME280;39674;59.860;30.672;2023-05-23T23:02:37;101481.22;;;12.26;88.17
53758;BME280;39674;59.860;30.672;2023-05-23T23:05:07;101421.34;;;11.84;89.70
53758;BME280;39674;59.860;30.672;2023-05-23T23:07:38;101418.59;;;11.66;89.59
53758;BME280;39674;59.860;30.672;2023-05-23T23:10:10;101399.94;;;11.49;90.23
53758;BME280;39674;59.860;30.672;2023-05-23T23:12:40;101395.81;;;11.43;91.75